sensor_id;sensor_type;location;lat;lon;timestamp;P1;durP1;ratioP1;P2;durP2;ratioP2
43098;SDS011;28715;51.988;6.020;2022-08-03T00:00:01;13.93;;;3.80;;
43098;SDS011;28715;51.988;6.020;2022-08-03T00:02:26;6.40;;;3.37;;
43098;SDS011;28715;51.988;6.020;2022-08-03T00:04:52;10.30;;;3.47;;
43098;SDS011;28715;51.988;6.020;2022-08-03T00:07:17;10.00;;;3.07;;
43098;SDS011;28715;51.988;6.020;2022-08-03T00:09:43;10.40;;;3.87;;
43098;SDS011;28715;51.988;6.020;2022-08-03T00:12:09;12.47;;;3.80;;
43098;SDS011;28715;51.988;6.020;2022-08-03T00:14:35;11.60;;;3.53;;
43098;SDS011;28715;51.988;6.020;2022-08-03T00:17:00;10.60;;;3.67;;
43098;SDS011;28715;51.988;6.020;2022-08-03T00:19:27;8.80;;;3.60;;
43098;SDS011;28715;51.988;6.020;2022-08-03T00:21:52;8.00;;;3.63;;
43098;SDS011;28715;51.988;6.020;2022-08-03T00:24:18;10.77;;;3.60;;
43098;SDS011;28715;51.988;6.020;2022-08-03T00:26:44;10.63;;;3.50;;
43098;SDS011;28715;51.988;6.020;2022-08-03T00:29:10;11.20;;;3.90;;
43098;SDS011;28715;51.988;6.020;2022-08-03T00:31:35;11.33;;;3.27;;
43098;SDS011;28715;51.988;6.020;2022-08-03T00:34:01;8.30;;;2.80;;
43098;SDS011;28715;51.988;6.020;2022-08-03T00:36:27;12.33;;;3.43;;
43098;SDS011;28715;51.988;6.020;2022-08-03T00:38:53;12.03;;;3.80;;
43098;SDS011;28715;51.988;6.020;2022-08-03T00:41:19;12.67;;;3.27;;
43098;SDS011;28715;51.988;6.020;2022-08-03T00:43:44;12.00;;;3.43;;
43098;SDS011;28715;51.988;6.020;2022-08-03T00:46:11;9.87;;;3.37;;
43098;SDS011;28715;51.988;6.020;2022-08-03T00:48:37;12.23;;;3.73;;
43098;SDS011;28715;51.988;6.020;2022-08-03T00:51:03;9.23;;;3.43;;
43098;SDS011;28715;51.988;6.020;2022-08-03T00:53:29;12.93;;;4.20;;
43098;SDS011;28715;51.988;6.020;2022-08-03T00:55:55;9.57;;;3.27;;
43098;SDS011;28715;51.988;6.020;2022-08-03T00:58:21;8.40;;;3.30;;
43098;SDS011;28715;51.988;6.020;2022-08-03T01:00:48;10.10;;;3.50;;
43098;SDS011;28715;51.988;6.020;2022-08-03T01:03:13;10.40;;;4.13;;
43098;SDS011;28715;51.988;6.020;2022-08-03T01:05:54;11.53;;;3.77;;
43098;SDS011;28715;51.988;6.020;2022-08-03T01:11:18;10.30;;;3.90;;
43098;SDS011;28715;51.988;6.020;2022-08-03T01:14:08;8.13;;;3.63;;
43098;SDS011;28715;51.988;6.020;2022-08-03T01:27:50;10.53;;;3.37;;
43098;SDS011;28715;51.988;6.020;2022-08-03T01:30:29;11.47;;;4.00;;
43098;SDS011;28715;51.988;6.020;2022-08-03T01:32:58;10.27;;;3.80;;
43098;SDS011;28715;51.988;6.020;2022-08-03T01:37:56;10.63;;;4.22;;
43098;SDS011;28715;51.988;6.020;2022-08-03T01:40:24;11.23;;;3.58;;
43098;SDS011;28715;51.988;6.020;2022-08-03T01:42:53;9.23;;;4.23;;
43098;SDS011;28715;51.988;6.020;2022-08-03T01:45:21;8.48;;;3.85;;
43098;SDS011;28715;51.988;6.020;2022-08-03T01:47:48;12.60;;;4.00;;
43098;SDS011;28715;51.988;6.020;2022-08-03T01:50:16;8.70;;;3.70;;
43098;SDS011;28715;51.988;6.020;2022-08-03T01:52:46;11.10;;;4.27;;
43098;SDS011;28715;51.988;6.020;2022-08-03T01:55:12;9.53;;;4.00;;
43098;SDS011;28715;51.988;6.020;2022-08-03T01:57:40;13.17;;;4.10;;
43098;SDS011;28715;51.988;6.020;2022-08-03T02:00:09;12.23;;;4.73;;
43098;SDS011;28715;51.988;6.020;2022-08-03T02:02:35;14.60;;;4.63;;
43098;SDS011;28715;51.988;6.020;2022-08-03T02:05:02;12.73;;;4.70;;
43098;SDS011;28715;51.988;6.020;2022-08-03T02:07:30;12.13;;;5.30;;
43098;SDS011;28715;51.988;6.020;2022-08-03T02:09:57;8.73;;;4.37;;
43098;SDS011;28715;51.988;6.020;2022-08-03T02:12:25;9.80;;;3.90;;
43098;SDS011;28715;51.988;6.020;2022-08-03T02:14:54;10.15;;;4.70;;
43098;SDS011;28715;51.988;6.020;2022-08-03T02:17:21;11.70;;;4.33;;
43098;SDS011;28715;51.988;6.020;2022-08-03T02:19:49;12.23;;;4.70;;
43098;SDS011;28715;51.988;6.020;2022-08-03T02:22:15;10.73;;;5.20;;
43098;SDS011;28715;51.988;6.020;2022-08-03T02:24:42;16.03;;;5.33;;
43098;SDS011;28715;51.988;6.020;2022-08-03T02:27:17;14.87;;;5.00;;
43098;SDS011;28715;51.988;6.020;2022-08-03T02:29:47;11.43;;;5.27;;
43098;SDS011;28715;51.988;6.020;2022-08-03T02:32:18;14.27;;;5.20;;
43098;SDS011;28715;51.988;6.020;2022-08-03T02:34:49;15.27;;;4.80;;
43098;SDS011;28715;51.988;6.020;2022-08-03T02:37:17;12.50;;;5.30;;
43098;SDS011;28715;51.988;6.020;2022-08-03T02:39:43;10.37;;;4.63;;
43098;SDS011;28715;51.988;6.020;2022-08-03T02:42:12;10.80;;;4.50;;
43098;SDS011;28715;51.988;6.020;2022-08-03T02:44:39;14.70;;;4.73;;
43098;SDS011;28715;51.988;6.020;2022-08-03T02:47:11;9.03;;;4.50;;
43098;SDS011;28715;51.988;6.020;2022-08-03T02:49:40;11.50;;;4.20;;
43098;SDS011;28715;51.988;6.020;2022-08-03T02:52:10;11.93;;;4.67;;
43098;SDS011;28715;51.988;6.020;2022-08-03T02:54:37;8.70;;;4.40;;
43098;SDS011;28715;51.988;6.020;2022-08-03T02:57:04;9.27;;;4.63;;
43098;SDS011;28715;51.988;6.020;2022-08-03T02:59:32;12.90;;;4.75;;
43098;SDS011;28715;51.988;6.020;2022-08-03T03:01:59;11.67;;;5.03;;
43098;SDS011;28715;51.988;6.020;2022-08-03T03:04:26;12.93;;;4.80;;
43098;SDS011;28715;51.988;6.020;2022-08-03T03:06:53;11.97;;;4.43;;
43098;SDS011;28715;51.988;6.020;2022-08-03T03:09:20;12.07;;;4.50;;
43098;SDS011;28715;51.988;6.020;2022-08-03T03:11:46;12.10;;;4.97;;
43098;SDS011;28715;51.988;6.020;2022-08-03T03:14:13;11.70;;;5.20;;
43098;SDS011;28715;51.988;6.020;2022-08-03T03:16:40;10.00;;;4.60;;
43098;SDS011;28715;51.988;6.020;2022-08-03T03:19:08;11.33;;;4.43;;
43098;SDS011;28715;51.988;6.020;2022-08-03T03:21:37;14.90;;;4.95;;
43098;SDS011;28715;51.988;6.020;2022-08-03T03:24:04;10.67;;;4.37;;
43098;SDS011;28715;51.988;6.020;2022-08-03T03:26:30;10.70;;;4.67;;
43098;SDS011;28715;51.988;6.020;2022-08-03T03:28:57;10.30;;;4.47;;
43098;SDS011;28715;51.988;6.020;2022-08-03T03:31:22;10.93;;;4.53;;
43098;SDS011;28715;51.988;6.020;2022-08-03T03:33:48;11.60;;;4.20;;
43098;SDS011;28715;51.988;6.020;2022-08-03T03:36:14;12.03;;;4.07;;
43098;SDS011;28715;51.988;6.020;2022-08-03T03:38:39;7.87;;;3.70;;
43098;SDS011;28715;51.988;6.020;2022-08-03T03:41:05;9.63;;;4.10;;
43098;SDS011;28715;51.988;6.020;2022-08-03T03:43:31;7.83;;;4.30;;
43098;SDS011;28715;51.988;6.020;2022-08-03T03:45:57;7.10;;;3.27;;
43098;SDS011;28715;51.988;6.020;2022-08-03T03:48:23;8.33;;;4.17;;
43098;SDS011;28715;51.988;6.020;2022-08-03T03:50:50;8.97;;;4.10;;
43098;SDS011;28715;51.988;6.020;2022-08-03T03:53:15;7.57;;;3.63;;
43098;SDS011;28715;51.988;6.020;2022-08-03T03:55:41;6.50;;;3.07;;
43098;SDS011;28715;51.988;6.020;2022-08-03T03:58:07;6.23;;;2.90;;
43098;SDS011;28715;51.988;6.020;2022-08-03T04:00:33;9.30;;;3.70;;
43098;SDS011;28715;51.988;6.020;2022-08-03T04:02:58;10.10;;;4.30;;
43098;SDS011;28715;51.988;6.020;2022-08-03T04:05:24;9.13;;;5.00;;
43098;SDS011;28715;51.988;6.020;2022-08-03T04:08:12;12.33;;;5.33;;
43098;SDS011;28715;51.988;6.020;2022-08-03T04:14:05;12.33;;;5.33;;
43098;SDS011;28715;51.988;6.020;2022-08-03T04:16:34;11.53;;;5.73;;
43098;SDS011;28715;51.988;6.020;2022-08-03T04:19:13;10.10;;;5.25;;
43098;SDS011;28715;51.988;6.020;2022-08-03T04:21:42;14.63;;;5.90;;
43098;SDS011;28715;51.988;6.020;2022-08-03T04:24:12;14.37;;;5.60;;
43098;SDS011;28715;51.988;6.020;2022-08-03T04:26:39;12.10;;;5.07;;
43098;SDS011;28715;51.988;6.020;2022-08-03T04:29:07;14.40;;;5.40;;
43098;SDS011;28715;51.988;6.020;2022-08-03T04:31:34;12.93;;;6.10;;
43098;SDS011;28715;51.988;6.020;2022-08-03T04:34:02;13.73;;;6.10;;
43098;SDS011;28715;51.988;6.020;2022-08-03T04:36:30;13.23;;;6.70;;
43098;SDS011;28715;51.988;6.020;2022-08-03T04:39:05;13.05;;;6.38;;
43098;SDS011;28715;51.988;6.020;2022-08-03T04:41:34;11.77;;;5.97;;
43098;SDS011;28715;51.988;6.020;2022-08-03T04:44:00;13.67;;;6.43;;
43098;SDS011;28715;51.988;6.020;2022-08-03T04:46:34;16.47;;;7.33;;
43098;SDS011;28715;51.988;6.020;2022-08-03T04:49:03;15.90;;;6.87;;
43098;SDS011;28715;51.988;6.020;2022-08-03T04:51:31;12.93;;;7.20;;
43098;SDS011;28715;51.988;6.020;2022-08-03T04:54:02;18.70;;;8.10;;
43098;SDS011;28715;51.988;6.020;2022-08-03T04:56:28;15.17;;;8.77;;
43098;SDS011;28715;51.988;6.020;2022-08-03T04:58:54;17.93;;;9.03;;
43098;SDS011;28715;51.988;6.020;2022-08-03T05:01:20;19.10;;;9.43;;
43098;SDS011;28715;51.988;6.020;2022-08-03T05:03:46;15.33;;;8.83;;
43098;SDS011;28715;51.988;6.020;2022-08-03T05:06:11;18.70;;;9.27;;
43098;SDS011;28715;51.988;6.020;2022-08-03T05:08:37;17.40;;;9.50;;
43098;SDS011;28715;51.988;6.020;2022-08-03T05:11:03;16.60;;;9.00;;
43098;SDS011;28715;51.988;6.020;2022-08-03T05:13:29;19.17;;;9.43;;
43098;SDS011;28715;51.988;6.020;2022-08-03T05:15:55;14.13;;;8.57;;
43098;SDS011;28715;51.988;6.020;2022-08-03T05:18:20;17.20;;;8.97;;
43098;SDS011;28715;51.988;6.020;2022-08-03T05:20:46;16.50;;;8.73;;
43098;SDS011;28715;51.988;6.020;2022-08-03T05:23:12;20.00;;;8.87;;
43098;SDS011;28715;51.988;6.020;2022-08-03T05:25:37;15.77;;;8.37;;
43098;SDS011;28715;51.988;6.020;2022-08-03T05:28:03;16.37;;;7.90;;
43098;SDS011;28715;51.988;6.020;2022-08-03T05:30:29;17.33;;;8.77;;
43098;SDS011;28715;51.988;6.020;2022-08-03T05:32:54;15.10;;;8.40;;
43098;SDS011;28715;51.988;6.020;2022-08-03T05:35:20;16.77;;;7.57;;
43098;SDS011;28715;51.988;6.020;2022-08-03T05:37:45;16.80;;;8.43;;
43098;SDS011;28715;51.988;6.020;2022-08-03T05:40:11;21.03;;;8.63;;
43098;SDS011;28715;51.988;6.020;2022-08-03T05:42:37;15.47;;;8.33;;
43098;SDS011;28715;51.988;6.020;2022-08-03T05:45:03;15.60;;;8.13;;
43098;SDS011;28715;51.988;6.020;2022-08-03T05:47:39;20.30;;;8.40;;
43098;SDS011;28715;51.988;6.020;2022-08-03T05:50:11;17.40;;;7.80;;
43098;SDS011;28715;51.988;6.020;2022-08-03T05:52:38;18.20;;;8.30;;
43098;SDS011;28715;51.988;6.020;2022-08-03T05:55:05;14.13;;;7.33;;
43098;SDS011;28715;51.988;6.020;2022-08-03T05:57:31;11.10;;;6.87;;
43098;SDS011;28715;51.988;6.020;2022-08-03T05:59:57;15.67;;;7.70;;
43098;SDS011;28715;51.988;6.020;2022-08-03T06:02:23;14.23;;;7.00;;
43098;SDS011;28715;51.988;6.020;2022-08-03T06:04:48;13.70;;;6.47;;
43098;SDS011;28715;51.988;6.020;2022-08-03T06:07:14;17.47;;;6.57;;
43098;SDS011;28715;51.988;6.020;2022-08-03T06:09:39;12.50;;;5.40;;
43098;SDS011;28715;51.988;6.020;2022-08-03T06:12:05;11.30;;;5.37;;
43098;SDS011;28715;51.988;6.020;2022-08-03T06:14:31;15.00;;;5.77;;
43098;SDS011;28715;51.988;6.020;2022-08-03T06:16:57;15.43;;;5.83;;
43098;SDS011;28715;51.988;6.020;2022-08-03T06:19:22;13.47;;;4.80;;
43098;SDS011;28715;51.988;6.020;2022-08-03T06:21:48;7.87;;;4.90;;
43098;SDS011;28715;51.988;6.020;2022-08-03T06:24:14;9.20;;;4.43;;
43098;SDS011;28715;51.988;6.020;2022-08-03T06:26:40;12.13;;;4.13;;
43098;SDS011;28715;51.988;6.020;2022-08-03T06:29:06;8.90;;;4.27;;
43098;SDS011;28715;51.988;6.020;2022-08-03T06:31:31;10.97;;;4.10;;
43098;SDS011;28715;51.988;6.020;2022-08-03T06:33:57;11.73;;;3.90;;
43098;SDS011;28715;51.988;6.020;2022-08-03T06:36:22;13.70;;;3.93;;
43098;SDS011;28715;51.988;6.020;2022-08-03T06:38:49;11.97;;;3.57;;
43098;SDS011;28715;51.988;6.020;2022-08-03T06:41:15;9.87;;;3.77;;
43098;SDS011;28715;51.988;6.020;2022-08-03T06:43:41;9.93;;;3.67;;
43098;SDS011;28715;51.988;6.020;2022-08-03T06:46:06;9.93;;;3.50;;
43098;SDS011;28715;51.988;6.020;2022-08-03T06:48:32;11.23;;;4.00;;
43098;SDS011;28715;51.988;6.020;2022-08-03T06:50:58;15.70;;;4.07;;
43098;SDS011;28715;51.988;6.020;2022-08-03T06:53:23;15.23;;;4.17;;
43098;SDS011;28715;51.988;6.020;2022-08-03T06:55:50;9.87;;;3.50;;
43098;SDS011;28715;51.988;6.020;2022-08-03T06:58:16;12.83;;;4.40;;
43098;SDS011;28715;51.988;6.020;2022-08-03T07:00:42;11.23;;;3.97;;
43098;SDS011;28715;51.988;6.020;2022-08-03T07:03:07;12.37;;;3.80;;
43098;SDS011;28715;51.988;6.020;2022-08-03T07:05:33;11.60;;;3.33;;
43098;SDS011;28715;51.988;6.020;2022-08-03T07:07:59;14.77;;;4.17;;
43098;SDS011;28715;51.988;6.020;2022-08-03T07:10:27;18.43;;;3.80;;
43098;SDS011;28715;51.988;6.020;2022-08-03T07:12:52;11.90;;;3.33;;
43098;SDS011;28715;51.988;6.020;2022-08-03T07:15:18;12.97;;;3.43;;
43098;SDS011;28715;51.988;6.020;2022-08-03T07:17:44;11.07;;;3.07;;
43098;SDS011;28715;51.988;6.020;2022-08-03T07:20:10;11.83;;;2.80;;
43098;SDS011;28715;51.988;6.020;2022-08-03T07:22:37;12.20;;;2.90;;
43098;SDS011;28715;51.988;6.020;2022-08-03T07:25:03;12.40;;;2.63;;
43098;SDS011;28715;51.988;6.020;2022-08-03T07:27:29;10.47;;;2.70;;
43098;SDS011;28715;51.988;6.020;2022-08-03T07:29:55;13.43;;;3.00;;
43098;SDS011;28715;51.988;6.020;2022-08-03T07:32:22;12.53;;;2.57;;
43098;SDS011;28715;51.988;6.020;2022-08-03T07:34:47;11.03;;;2.83;;
43098;SDS011;28715;51.988;6.020;2022-08-03T07:37:13;13.47;;;2.80;;
43098;SDS011;28715;51.988;6.020;2022-08-03T07:39:38;14.20;;;2.67;;
43098;SDS011;28715;51.988;6.020;2022-08-03T07:42:04;8.70;;;2.50;;
43098;SDS011;28715;51.988;6.020;2022-08-03T07:44:30;10.67;;;2.13;;
43098;SDS011;28715;51.988;6.020;2022-08-03T07:46:55;12.00;;;2.73;;
43098;SDS011;28715;51.988;6.020;2022-08-03T07:49:21;11.43;;;2.80;;
43098;SDS011;28715;51.988;6.020;2022-08-03T07:51:47;13.37;;;3.20;;
43098;SDS011;28715;51.988;6.020;2022-08-03T07:54:32;14.07;;;2.60;;
43098;SDS011;28715;51.988;6.020;2022-08-03T07:56:58;16.27;;;3.07;;
43098;SDS011;28715;51.988;6.020;2022-08-03T07:59:23;14.97;;;3.13;;
43098;SDS011;28715;51.988;6.020;2022-08-03T08:01:49;8.67;;;2.83;;
43098;SDS011;28715;51.988;6.020;2022-08-03T08:04:17;10.23;;;2.13;;
43098;SDS011;28715;51.988;6.020;2022-08-03T08:06:43;10.07;;;2.40;;
43098;SDS011;28715;51.988;6.020;2022-08-03T08:09:08;12.77;;;2.77;;
43098;SDS011;28715;51.988;6.020;2022-08-03T08:11:35;10.07;;;2.07;;
43098;SDS011;28715;51.988;6.020;2022-08-03T08:14:01;13.53;;;3.33;;
43098;SDS011;28715;51.988;6.020;2022-08-03T08:16:27;10.80;;;2.20;;
43098;SDS011;28715;51.988;6.020;2022-08-03T08:18:53;15.70;;;3.07;;
43098;SDS011;28715;51.988;6.020;2022-08-03T08:21:19;13.77;;;2.50;;
43098;SDS011;28715;51.988;6.020;2022-08-03T08:23:44;10.83;;;2.30;;
43098;SDS011;28715;51.988;6.020;2022-08-03T08:26:10;12.97;;;2.60;;
43098;SDS011;28715;51.988;6.020;2022-08-03T08:28:36;10.10;;;2.67;;
43098;SDS011;28715;51.988;6.020;2022-08-03T08:31:02;14.00;;;2.80;;
43098;SDS011;28715;51.988;6.020;2022-08-03T08:33:27;14.93;;;2.90;;
43098;SDS011;28715;51.988;6.020;2022-08-03T08:35:53;11.47;;;3.00;;
43098;SDS011;28715;51.988;6.020;2022-08-03T08:38:19;11.07;;;2.37;;
43098;SDS011;28715;51.988;6.020;2022-08-03T08:40:45;11.87;;;2.70;;
43098;SDS011;28715;51.988;6.020;2022-08-03T08:43:11;11.17;;;2.50;;
43098;SDS011;28715;51.988;6.020;2022-08-03T08:45:36;15.07;;;3.47;;
43098;SDS011;28715;51.988;6.020;2022-08-03T08:48:04;15.53;;;2.53;;
43098;SDS011;28715;51.988;6.020;2022-08-03T08:50:31;15.07;;;2.53;;
43098;SDS011;28715;51.988;6.020;2022-08-03T08:52:59;11.80;;;2.97;;
43098;SDS011;28715;51.988;6.020;2022-08-03T08:55:27;10.30;;;2.40;;
43098;SDS011;28715;51.988;6.020;2022-08-03T08:57:56;13.77;;;2.57;;
43098;SDS011;28715;51.988;6.020;2022-08-03T09:00:25;13.03;;;2.57;;
43098;SDS011;28715;51.988;6.020;2022-08-03T09:02:51;13.93;;;2.80;;
43098;SDS011;28715;51.988;6.020;2022-08-03T09:05:17;13.73;;;2.67;;
43098;SDS011;28715;51.988;6.020;2022-08-03T09:07:45;15.50;;;2.97;;
43098;SDS011;28715;51.988;6.020;2022-08-03T09:10:11;12.27;;;2.57;;
43098;SDS011;28715;51.988;6.020;2022-08-03T09:12:52;13.93;;;3.00;;
43098;SDS011;28715;51.988;6.020;2022-08-03T09:15:20;15.70;;;3.30;;
43098;SDS011;28715;51.988;6.020;2022-08-03T09:17:55;13.10;;;2.97;;
43098;SDS011;28715;51.988;6.020;2022-08-03T09:20:26;12.77;;;2.60;;
43098;SDS011;28715;51.988;6.020;2022-08-03T09:22:55;13.17;;;2.50;;
43098;SDS011;28715;51.988;6.020;2022-08-03T09:27:52;16.40;;;3.77;;
43098;SDS011;28715;51.988;6.020;2022-08-03T09:30:18;12.90;;;2.60;;
43098;SDS011;28715;51.988;6.020;2022-08-03T09:32:44;11.37;;;2.43;;
43098;SDS011;28715;51.988;6.020;2022-08-03T09:35:12;11.53;;;2.70;;
43098;SDS011;28715;51.988;6.020;2022-08-03T09:37:38;11.20;;;2.43;;
43098;SDS011;28715;51.988;6.020;2022-08-03T09:40:05;14.80;;;2.87;;
43098;SDS011;28715;51.988;6.020;2022-08-03T09:42:31;15.50;;;2.67;;
43098;SDS011;28715;51.988;6.020;2022-08-03T09:45:02;13.03;;;2.90;;
43098;SDS011;28715;51.988;6.020;2022-08-03T09:47:30;18.77;;;2.43;;
43098;SDS011;28715;51.988;6.020;2022-08-03T09:50:00;12.37;;;2.50;;
43098;SDS011;28715;51.988;6.020;2022-08-03T09:52:31;12.03;;;2.40;;
43098;SDS011;28715;51.988;6.020;2022-08-03T09:54:58;13.90;;;2.78;;
43098;SDS011;28715;51.988;6.020;2022-08-03T09:57:26;18.07;;;3.50;;
43098;SDS011;28715;51.988;6.020;2022-08-03T09:59:53;17.47;;;2.70;;
43098;SDS011;28715;51.988;6.020;2022-08-03T10:02:28;14.77;;;2.80;;
43098;SDS011;28715;51.988;6.020;2022-08-03T10:04:54;17.37;;;2.77;;
43098;SDS011;28715;51.988;6.020;2022-08-03T10:07:20;12.83;;;2.53;;
43098;SDS011;28715;51.988;6.020;2022-08-03T10:09:54;11.87;;;2.63;;
43098;SDS011;28715;51.988;6.020;2022-08-03T10:12:21;10.57;;;2.43;;
43098;SDS011;28715;51.988;6.020;2022-08-03T10:14:46;17.50;;;2.97;;
43098;SDS011;28715;51.988;6.020;2022-08-03T10:17:12;14.87;;;3.17;;
43098;SDS011;28715;51.988;6.020;2022-08-03T10:19:38;12.07;;;2.67;;
43098;SDS011;28715;51.988;6.020;2022-08-03T10:22:15;10.93;;;2.60;;
43098;SDS011;28715;51.988;6.020;2022-08-03T10:24:51;11.93;;;2.20;;
43098;SDS011;28715;51.988;6.020;2022-08-03T10:27:31;12.77;;;2.53;;
43098;SDS011;28715;51.988;6.020;2022-08-03T10:30:03;13.53;;;2.53;;
43098;SDS011;28715;51.988;6.020;2022-08-03T10:32:33;11.55;;;2.33;;
43098;SDS011;28715;51.988;6.020;2022-08-03T10:35:13;13.93;;;2.47;;
43098;SDS011;28715;51.988;6.020;2022-08-03T10:37:42;15.90;;;2.97;;
43098;SDS011;28715;51.988;6.020;2022-08-03T10:40:12;13.00;;;2.70;;
43098;SDS011;28715;51.988;6.020;2022-08-03T10:42:41;15.93;;;2.63;;
43098;SDS011;28715;51.988;6.020;2022-08-03T10:45:17;15.02;;;3.13;;
43098;SDS011;28715;51.988;6.020;2022-08-03T10:47:44;12.90;;;3.23;;
43098;SDS011;28715;51.988;6.020;2022-08-03T10:50:12;15.43;;;2.83;;
43098;SDS011;28715;51.988;6.020;2022-08-03T10:52:54;17.10;;;2.90;;
43098;SDS011;28715;51.988;6.020;2022-08-03T10:58:13;14.57;;;2.73;;
43098;SDS011;28715;51.988;6.020;2022-08-03T11:00:49;17.97;;;2.87;;
43098;SDS011;28715;51.988;6.020;2022-08-03T11:03:14;14.07;;;2.57;;
43098;SDS011;28715;51.988;6.020;2022-08-03T11:05:41;14.17;;;2.57;;
43098;SDS011;28715;51.988;6.020;2022-08-03T11:08:21;11.13;;;2.33;;
43098;SDS011;28715;51.988;6.020;2022-08-03T11:11:41;14.00;;;2.90;;
43098;SDS011;28715;51.988;6.020;2022-08-03T11:14:01;13.50;;;2.53;;
43098;SDS011;28715;51.988;6.020;2022-08-03T11:16:38;11.80;;;2.77;;
43098;SDS011;28715;51.988;6.020;2022-08-03T11:19:16;14.23;;;2.10;;
43098;SDS011;28715;51.988;6.020;2022-08-03T11:27:24;13.47;;;2.47;;
43098;SDS011;28715;51.988;6.020;2022-08-03T11:35:14;11.00;;;2.27;;
43098;SDS011;28715;51.988;6.020;2022-08-03T11:46:05;10.73;;;2.63;;
43098;SDS011;28715;51.988;6.020;2022-08-03T11:48:33;13.43;;;2.70;;
43098;SDS011;28715;51.988;6.020;2022-08-03T11:51:01;15.53;;;2.97;;
43098;SDS011;28715;51.988;6.020;2022-08-03T11:53:32;14.17;;;2.50;;
43098;SDS011;28715;51.988;6.020;2022-08-03T11:55:58;13.53;;;2.60;;
43098;SDS011;28715;51.988;6.020;2022-08-03T11:58:26;14.15;;;2.65;;
43098;SDS011;28715;51.988;6.020;2022-08-03T12:00:56;11.57;;;2.17;;
43098;SDS011;28715;51.988;6.020;2022-08-03T12:03:30;11.33;;;2.37;;
43098;SDS011;28715;51.988;6.020;2022-08-03T12:05:59;11.80;;;2.40;;
43098;SDS011;28715;51.988;6.020;2022-08-03T12:08:29;13.30;;;2.90;;
43098;SDS011;28715;51.988;6.020;2022-08-03T12:10:56;7.97;;;1.95;;
43098;SDS011;28715;51.988;6.020;2022-08-03T12:13:23;8.63;;;2.20;;
43098;SDS011;28715;51.988;6.020;2022-08-03T12:15:53;12.87;;;2.27;;
43098;SDS011;28715;51.988;6.020;2022-08-03T12:18:20;13.90;;;2.60;;
43098;SDS011;28715;51.988;6.020;2022-08-03T12:20:48;11.47;;;2.57;;
43098;SDS011;28715;51.988;6.020;2022-08-03T12:23:15;10.90;;;1.95;;
43098;SDS011;28715;51.988;6.020;2022-08-03T12:25:41;10.27;;;2.67;;
43098;SDS011;28715;51.988;6.020;2022-08-03T12:28:18;8.98;;;2.40;;
43098;SDS011;28715;51.988;6.020;2022-08-03T12:30:48;11.30;;;2.23;;
43098;SDS011;28715;51.988;6.020;2022-08-03T12:33:16;11.65;;;2.35;;
43098;SDS011;28715;51.988;6.020;2022-08-03T12:36:01;15.83;;;2.47;;
43098;SDS011;28715;51.988;6.020;2022-08-03T12:38:30;10.87;;;2.40;;
43098;SDS011;28715;51.988;6.020;2022-08-03T12:40:57;11.53;;;2.27;;
43098;SDS011;28715;51.988;6.020;2022-08-03T12:43:37;11.90;;;2.43;;
43098;SDS011;28715;51.988;6.020;2022-08-03T12:46:15;8.35;;;2.00;;
43098;SDS011;28715;51.988;6.020;2022-08-03T12:49:01;11.10;;;1.85;;
43098;SDS011;28715;51.988;6.020;2022-08-03T12:51:33;10.23;;;2.20;;
43098;SDS011;28715;51.988;6.020;2022-08-03T12:54:22;11.70;;;2.40;;
43098;SDS011;28715;51.988;6.020;2022-08-03T12:56:58;7.82;;;1.88;;
43098;SDS011;28715;51.988;6.020;2022-08-03T12:59:25;9.53;;;1.80;;
43098;SDS011;28715;51.988;6.020;2022-08-03T13:01:55;9.13;;;1.70;;
43098;SDS011;28715;51.988;6.020;2022-08-03T13:04:27;13.80;;;2.43;;
43098;SDS011;28715;51.988;6.020;2022-08-03T13:09:27;9.73;;;2.00;;
43098;SDS011;28715;51.988;6.020;2022-08-03T13:12:03;7.93;;;1.30;;
43098;SDS011;28715;51.988;6.020;2022-08-03T13:14:33;8.60;;;1.50;;
43098;SDS011;28715;51.988;6.020;2022-08-03T13:16:59;10.60;;;1.60;;
43098;SDS011;28715;51.988;6.020;2022-08-03T13:19:24;9.43;;;1.70;;
43098;SDS011;28715;51.988;6.020;2022-08-03T13:21:50;8.83;;;2.30;;
43098;SDS011;28715;51.988;6.020;2022-08-03T13:24:16;6.63;;;1.47;;
43098;SDS011;28715;51.988;6.020;2022-08-03T13:26:42;8.30;;;1.20;;
43098;SDS011;28715;51.988;6.020;2022-08-03T13:29:07;4.90;;;1.20;;
43098;SDS011;28715;51.988;6.020;2022-08-03T13:31:33;8.10;;;1.90;;
43098;SDS011;28715;51.988;6.020;2022-08-03T13:33:58;7.43;;;1.40;;
43098;SDS011;28715;51.988;6.020;2022-08-03T13:36:24;7.23;;;1.90;;
43098;SDS011;28715;51.988;6.020;2022-08-03T13:38:50;5.83;;;1.00;;
43098;SDS011;28715;51.988;6.020;2022-08-03T13:41:15;5.70;;;1.27;;
43098;SDS011;28715;51.988;6.020;2022-08-03T13:43:41;10.57;;;1.87;;
43098;SDS011;28715;51.988;6.020;2022-08-03T13:46:06;7.83;;;1.57;;
43098;SDS011;28715;51.988;6.020;2022-08-03T13:48:32;9.50;;;1.90;;
43098;SDS011;28715;51.988;6.020;2022-08-03T13:50:57;8.17;;;1.63;;
43098;SDS011;28715;51.988;6.020;2022-08-03T13:53:23;7.43;;;1.53;;
43098;SDS011;28715;51.988;6.020;2022-08-03T13:55:48;10.37;;;1.60;;
43098;SDS011;28715;51.988;6.020;2022-08-03T13:58:14;8.60;;;1.87;;
43098;SDS011;28715;51.988;6.020;2022-08-03T14:00:40;5.33;;;1.20;;
43098;SDS011;28715;51.988;6.020;2022-08-03T14:03:05;6.00;;;1.37;;
43098;SDS011;28715;51.988;6.020;2022-08-03T14:05:31;6.33;;;1.53;;
43098;SDS011;28715;51.988;6.020;2022-08-03T14:07:58;5.70;;;1.33;;
43098;SDS011;28715;51.988;6.020;2022-08-03T14:10:25;6.17;;;1.37;;
43098;SDS011;28715;51.988;6.020;2022-08-03T14:12:50;6.27;;;1.50;;
43098;SDS011;28715;51.988;6.020;2022-08-03T14:15:16;5.53;;;1.20;;
43098;SDS011;28715;51.988;6.020;2022-08-03T14:17:41;5.17;;;2.23;;
43098;SDS011;28715;51.988;6.020;2022-08-03T14:20:07;6.80;;;1.67;;
43098;SDS011;28715;51.988;6.020;2022-08-03T14:22:33;4.53;;;1.20;;
43098;SDS011;28715;51.988;6.020;2022-08-03T14:24:59;4.13;;;1.30;;
43098;SDS011;28715;51.988;6.020;2022-08-03T14:27:24;3.97;;;0.97;;
43098;SDS011;28715;51.988;6.020;2022-08-03T14:29:50;4.83;;;1.47;;
43098;SDS011;28715;51.988;6.020;2022-08-03T14:32:16;7.20;;;1.40;;
43098;SDS011;28715;51.988;6.020;2022-08-03T14:34:41;5.37;;;1.40;;
43098;SDS011;28715;51.988;6.020;2022-08-03T14:37:07;4.53;;;1.30;;
43098;SDS011;28715;51.988;6.020;2022-08-03T14:39:32;4.60;;;1.30;;
43098;SDS011;28715;51.988;6.020;2022-08-03T14:41:58;4.17;;;1.43;;
43098;SDS011;28715;51.988;6.020;2022-08-03T14:44:24;3.73;;;1.30;;
43098;SDS011;28715;51.988;6.020;2022-08-03T14:46:49;4.00;;;1.53;;
43098;SDS011;28715;51.988;6.020;2022-08-03T14:49:15;4.57;;;1.40;;
43098;SDS011;28715;51.988;6.020;2022-08-03T14:51:40;5.77;;;1.60;;
43098;SDS011;28715;51.988;6.020;2022-08-03T14:54:06;5.57;;;1.50;;
43098;SDS011;28715;51.988;6.020;2022-08-03T14:56:31;5.67;;;1.43;;
43098;SDS011;28715;51.988;6.020;2022-08-03T14:58:57;4.63;;;1.60;;
43098;SDS011;28715;51.988;6.020;2022-08-03T15:01:22;6.57;;;1.47;;
43098;SDS011;28715;51.988;6.020;2022-08-03T15:03:48;5.00;;;1.30;;
43098;SDS011;28715;51.988;6.020;2022-08-03T15:06:13;4.83;;;1.40;;
43098;SDS011;28715;51.988;6.020;2022-08-03T15:08:39;3.97;;;1.50;;
43098;SDS011;28715;51.988;6.020;2022-08-03T15:11:04;6.33;;;1.43;;
43098;SDS011;28715;51.988;6.020;2022-08-03T15:13:30;5.53;;;1.50;;
43098;SDS011;28715;51.988;6.020;2022-08-03T15:15:55;3.87;;;1.40;;
43098;SDS011;28715;51.988;6.020;2022-08-03T15:18:21;3.73;;;1.40;;
43098;SDS011;28715;51.988;6.020;2022-08-03T15:20:47;4.23;;;1.40;;
43098;SDS011;28715;51.988;6.020;2022-08-03T15:23:14;4.23;;;1.40;;
43098;SDS011;28715;51.988;6.020;2022-08-03T15:25:44;6.40;;;1.50;;
43098;SDS011;28715;51.988;6.020;2022-08-03T15:28:10;4.43;;;1.23;;